Terminal Aerodrome Forecast
Issued by NWS

Home | Current Version | Previous Version | Text Only | Print | Product List | Glossary On
Versions: 1 2 3 4 5 6 7 8 9 10 11 12 13 14 15 16 17 18 19 20 21
422
FTUS43 KILX 210533 AAB
TAFDEC
TAF AMD
KDEC 210533Z 2106/2206 16011KT P6SM SCT030
     FM211700 19011G19KT P6SM SCT090
     FM220000 18006KT P6SM BKN090=

USA.gov is the U.S. government's official web portal to all federal, state and local government web resources and services.